createdAt,value
2023-01-25T00:01:08.799Z,2.05
2023-01-25T00:06:13.541Z,1.97
2023-01-25T00:11:20.325Z,1.92
2023-01-25T00:16:25.248Z,1.93
2023-01-25T00:21:30.141Z,1.99
2023-01-25T00:26:37.081Z,1.97
2023-01-25T00:31:56.639Z,2.01
2023-01-25T00:37:13.624Z,1.91
2023-01-25T00:42:20.934Z,1.81
2023-01-25T00:47:25.458Z,1.86
2023-01-25T00:52:30.021Z,1.92
2023-01-25T00:57:35.919Z,2.02
2023-01-25T01:02:40.804Z,2.00
2023-01-25T01:07:45.287Z,2.00
2023-01-25T01:12:52.124Z,1.99
2023-01-25T01:17:57.335Z,1.91
2023-01-25T01:23:01.785Z,1.94
2023-01-25T01:28:07.877Z,1.95
2023-01-25T01:33:12.453Z,1.95
2023-01-25T01:38:16.945Z,1.90
2023-01-25T01:43:25.537Z,1.85
2023-01-25T01:48:39.349Z,1.89
2023-01-25T01:53:51.092Z,1.83
2023-01-25T01:58:59.348Z,1.86
2023-01-25T02:04:06.542Z,1.98
2023-01-25T02:09:13.396Z,2.00
2023-01-25T02:14:20.088Z,1.95
2023-01-25T02:19:39.478Z,1.81
2023-01-25T02:24:51.920Z,1.92
2023-01-25T02:29:58.209Z,1.90
2023-01-25T02:35:02.672Z,1.79
2023-01-25T02:40:08.932Z,1.89
2023-01-25T02:45:20.647Z,1.77
2023-01-25T02:50:25.200Z,1.82
2023-01-25T02:55:30.577Z,1.77
2023-01-25T03:00:36.525Z,1.74
2023-01-25T03:05:41.207Z,1.87
2023-01-25T03:10:45.833Z,1.82
2023-01-25T03:15:51.993Z,1.90
2023-01-25T03:20:57.104Z,1.87
2023-01-25T03:26:13.531Z,1.79
2023-01-25T03:31:34.386Z,1.68
2023-01-25T03:36:39.274Z,1.73
2023-01-25T03:41:43.833Z,1.78
2023-01-25T03:46:52.247Z,1.81
2023-01-25T03:51:58.736Z,1.83
2023-01-25T03:57:12.994Z,1.90
2023-01-25T04:02:28.318Z,1.76
2023-01-25T04:07:34.007Z,1.79
2023-01-25T04:12:39.437Z,1.69
2023-01-25T04:17:45.454Z,1.76
2023-01-25T04:22:58.014Z,1.72
2023-01-25T04:28:09.083Z,1.70
2023-01-25T04:33:14.910Z,1.73
2023-01-25T04:38:21.095Z,1.81
2023-01-25T04:43:26.452Z,1.72
2023-01-25T04:48:37.426Z,1.76
2023-01-25T04:53:44.889Z,1.82
2023-01-25T04:58:49.726Z,1.82
2023-01-25T05:03:55.701Z,1.80
2023-01-25T05:09:08.748Z,1.69
2023-01-25T05:14:13.411Z,1.76
2023-01-25T05:19:21.102Z,1.79
2023-01-25T05:24:37.292Z,1.69
2023-01-25T05:29:46.372Z,1.79
2023-01-25T05:34:52.770Z,1.79
2023-01-25T05:39:58.065Z,1.71
2023-01-25T05:45:03.295Z,1.74
2023-01-25T05:50:11.708Z,1.85
2023-01-25T05:55:39.662Z,1.86
2023-01-25T06:00:47.702Z,1.89
2023-01-25T06:06:05.055Z,1.94
2023-01-25T06:11:12.151Z,1.95
2023-01-25T06:16:21.614Z,1.89
2023-01-25T06:21:39.160Z,1.67
2023-01-25T06:26:43.679Z,1.79
2023-01-25T06:31:48.145Z,1.83
2023-01-25T06:36:53.979Z,1.93
2023-01-25T06:41:58.393Z,1.84
2023-01-25T06:47:03.101Z,1.87
2023-01-25T06:52:08.969Z,1.84
2023-01-25T06:57:13.734Z,1.86
2023-01-25T07:02:18.283Z,1.90
2023-01-25T07:07:24.099Z,1.91
2023-01-25T07:12:30.110Z,1.79
2023-01-25T07:17:34.635Z,1.89
2023-01-25T07:22:40.398Z,1.81
2023-01-25T07:27:44.924Z,1.77
2023-01-25T07:32:49.433Z,1.88
2023-01-25T07:37:57.284Z,2.03
2023-01-25T07:43:01.882Z,2.11
2023-01-25T07:48:11.651Z,2.11
2023-01-25T07:53:17.279Z,2.13
2023-01-25T07:58:21.936Z,2.23
2023-01-25T08:03:26.318Z,2.05
2023-01-25T08:08:34.123Z,1.99
2023-01-25T08:13:38.446Z,2.10
2023-01-25T08:18:42.961Z,2.13
2023-01-25T08:23:48.898Z,1.94
2023-01-25T08:28:53.978Z,1.96
2023-01-25T08:33:59.349Z,2.00
2023-01-25T08:39:09.072Z,2.03
2023-01-25T08:44:13.491Z,2.07
2023-01-25T08:49:18.131Z,2.01
2023-01-25T08:54:24.667Z,1.96
2023-01-25T08:59:29.243Z,2.12
2023-01-25T09:04:33.948Z,2.02
2023-01-25T09:09:39.559Z,2.04
2023-01-25T09:14:44.234Z,2.04
2023-01-25T09:25:00.113Z,2.09
2023-01-25T09:30:10.898Z,2.07
2023-01-25T09:35:18.773Z,2.11
2023-01-25T09:40:29.889Z,2.23
2023-01-25T09:45:35.823Z,2.19
2023-01-25T09:51:01.299Z,2.12
2023-01-25T09:56:18.752Z,2.19
2023-01-25T10:01:39.027Z,2.31
2023-01-25T10:06:58.934Z,2.21
2023-01-25T10:12:16.547Z,2.15
2023-01-25T10:17:31.137Z,2.21
2023-01-25T10:22:44.692Z,2.12
2023-01-25T10:28:25.792Z,2.13
2023-01-25T10:33:36.023Z,2.22
2023-01-25T10:38:44.306Z,2.30
2023-01-25T10:44:10.043Z,2.29
2023-01-25T10:49:24.641Z,2.39
2023-01-25T10:54:30.232Z,2.48
2023-01-25T10:59:38.161Z,2.50
2023-01-25T11:04:47.198Z,2.54
2023-01-25T11:09:51.928Z,2.65
2023-01-25T11:14:57.961Z,2.64
2023-01-25T11:20:20.960Z,2.60
2023-01-25T11:25:33.862Z,2.48
2023-01-25T11:30:39.879Z,2.46
2023-01-25T11:36:10.304Z,2.62
2023-01-25T11:41:30.796Z,2.56
2023-01-25T11:46:55.623Z,2.55
2023-01-25T11:52:16.419Z,2.33
2023-01-25T11:57:50.755Z,2.37
2023-01-25T12:03:43.496Z,2.41
2023-01-25T12:09:16.657Z,2.28
2023-01-25T12:14:35.981Z,2.15
2023-01-25T12:20:22.989Z,2.16
2023-01-25T12:25:42.288Z,2.04
2023-01-25T12:31:04.953Z,2.14
2023-01-25T12:36:19.058Z,2.07
2023-01-25T12:41:37.087Z,2.04
2023-01-25T12:46:49.605Z,2.10
2023-01-25T12:51:57.508Z,2.23
2023-01-25T12:57:17.536Z,2.18
2023-01-25T13:02:51.772Z,1.99
2023-01-25T13:08:08.016Z,1.98
2023-01-25T13:13:26.392Z,1.94
2023-01-25T13:18:41.558Z,1.90
2023-01-25T13:23:47.937Z,1.92
2023-01-25T13:28:55.303Z,1.81
2023-01-25T13:34:00.352Z,1.92
2023-01-25T13:39:45.145Z,1.78
2023-01-25T13:44:54.014Z,1.75
2023-01-25T13:50:05.376Z,1.72
2023-01-25T13:55:19.630Z,1.73
2023-01-25T14:00:26.302Z,1.66
2023-01-25T14:05:30.701Z,1.61
2023-01-25T14:10:36.120Z,1.48
2023-01-25T14:15:43.040Z,1.56
2023-01-25T14:20:49.932Z,1.50
2023-01-25T14:25:56.152Z,1.57
2023-01-25T14:31:02.516Z,1.46
2023-01-25T14:36:24.184Z,1.45
2023-01-25T14:41:34.093Z,1.47
2023-01-25T14:46:42.049Z,1.33
2023-01-25T14:51:50.124Z,1.34
2023-01-25T14:56:57.344Z,1.35
2023-01-25T15:02:17.018Z,1.26
2023-01-25T15:07:37.459Z,1.21
2023-01-25T15:12:42.127Z,1.21
2023-01-25T15:17:50.900Z,1.19
2023-01-25T15:22:56.086Z,1.24
2023-01-25T15:28:00.471Z,1.26
2023-01-25T15:33:06.964Z,1.31
2023-01-25T15:38:12.402Z,1.32
2023-01-25T15:43:19.556Z,1.42
2023-01-25T15:48:31.609Z,1.45
2023-01-25T15:53:36.450Z,1.34
2023-01-25T15:58:44.161Z,1.25
2023-01-25T16:03:50.239Z,1.24
2023-01-25T16:08:54.551Z,1.23
2023-01-25T16:13:59.058Z,1.19
2023-01-25T16:19:04.931Z,1.20
2023-01-25T16:24:10.495Z,1.25
2023-01-25T16:29:15.180Z,1.25
2023-01-25T16:34:21.994Z,1.31
2023-01-25T16:39:28.503Z,1.24
2023-01-25T16:44:33.181Z,1.22
2023-01-25T16:49:39.058Z,1.31
2023-01-25T16:54:43.366Z,1.36
2023-01-25T16:59:47.572Z,1.28
2023-01-25T17:04:53.617Z,1.29
2023-01-25T17:09:58.070Z,1.27
2023-01-25T17:15:02.876Z,1.37
2023-01-25T17:20:11.692Z,1.31
2023-01-25T17:25:16.515Z,1.38
2023-01-25T17:30:21.162Z,1.47
2023-01-25T17:35:27.083Z,1.46
2023-01-25T17:40:31.547Z,1.50
2023-01-25T17:45:39.467Z,1.42
2023-01-25T17:50:45.403Z,1.42
2023-01-25T17:55:49.895Z,1.45
2023-01-25T18:01:02.153Z,1.39
2023-01-25T18:06:20.419Z,1.28
2023-01-25T18:11:27.385Z,1.28
2023-01-25T18:16:33.619Z,1.34
2023-01-25T18:21:41.938Z,1.22
2023-01-25T18:26:47.308Z,1.24
2023-01-25T18:31:52.405Z,1.26
2023-01-25T18:36:59.483Z,1.29
2023-01-25T18:42:04.452Z,1.34
2023-01-25T18:47:13.810Z,1.45
2023-01-25T18:52:22.123Z,1.56
2023-01-25T18:57:26.539Z,1.55
2023-01-25T19:02:30.988Z,1.48
2023-01-25T19:07:36.831Z,1.36
2023-01-25T19:12:41.368Z,1.42
2023-01-25T19:17:45.761Z,1.45
2023-01-25T19:22:55.561Z,1.45
2023-01-25T19:28:00.669Z,1.43
2023-01-25T19:33:05.711Z,1.42
2023-01-25T19:38:11.333Z,1.53
2023-01-25T19:43:15.527Z,1.52
2023-01-25T19:48:20.039Z,1.39
2023-01-25T19:53:25.617Z,1.48
2023-01-25T19:58:31.328Z,1.46
2023-01-25T20:03:36.132Z,1.46
2023-01-25T20:08:44.848Z,1.47
2023-01-25T20:13:50.672Z,1.47
2023-01-25T20:18:57.681Z,1.55
2023-01-25T20:24:07.642Z,1.40
2023-01-25T20:29:14.721Z,1.33
2023-01-25T20:34:22.474Z,1.46
2023-01-25T20:39:28.044Z,1.40
2023-01-25T20:44:32.964Z,1.30
2023-01-25T20:49:38.457Z,1.32
2023-01-25T20:54:44.294Z,1.33
2023-01-25T20:59:49.049Z,1.15
2023-01-25T21:04:53.477Z,1.04
2023-01-25T21:09:59.115Z,1.13
2023-01-25T21:15:03.693Z,1.24
2023-01-25T21:20:10.136Z,1.14
2023-01-25T21:25:15.961Z,0.94
2023-01-25T21:30:22.467Z,0.94
2023-01-25T21:35:29.683Z,1.04
2023-01-25T21:40:35.609Z,1.12
2023-01-25T21:45:57.544Z,1.10
2023-01-25T21:51:19.225Z,1.07
2023-01-25T21:56:24.846Z,1.02
2023-01-25T22:01:29.856Z,1.03
2023-01-25T22:06:34.624Z,0.97
2023-01-25T22:11:40.178Z,0.93
2023-01-25T22:16:44.615Z,0.90
2023-01-25T22:21:49.302Z,1.03
2023-01-25T22:27:05.559Z,1.07
2023-01-25T22:32:10.408Z,1.06
2023-01-25T22:37:14.678Z,1.04
2023-01-25T22:42:20.595Z,0.87
2023-01-25T22:47:25.175Z,0.99
2023-01-25T22:52:29.649Z,0.97
2023-01-25T22:57:35.474Z,0.96
2023-01-25T23:02:40.019Z,0.92
2023-01-25T23:07:44.731Z,0.83
2023-01-25T23:12:50.620Z,0.87
2023-01-25T23:18:12.143Z,0.96
2023-01-25T23:23:16.354Z,0.92
2023-01-25T23:28:22.340Z,0.88
2023-01-25T23:33:26.834Z,0.88
2023-01-25T23:38:31.433Z,0.78
2023-01-25T23:43:38.235Z,0.65
2023-01-25T23:48:43.529Z,0.58
2023-01-25T23:53:48.723Z,0.68
2023-01-25T23:58:54.571Z,0.81
